Terminal Aerodrome Forecast
Issued by NWS

Home | Current Version | Previous Version | Text Only | Print | Product List | Glossary On
Versions: 1 2 3 4 5 6 7 8 9 10 11
000
FTUS43 KEAX 082321
TAFSTJ
TAF
KSTJ 082321Z 0900/0924 31012KT P6SM FEW035
      TEMPO 0900/0902 BKN030
     FM090800 32009KT P6SM BKN015
     FM091600 31010G20KT P6SM FEW200=

USA.gov is the U.S. government's official web portal to all federal, state and local government web resources and services.